North Arm Victor — CFK9387 — position and weather

sailwx.info

Track history (hours):
 
Tides and Currents Weather Stations Pressure Air Temp Water Temp Dewpoint Dewpoint Depression Visibility Wind Speed Wind Dir Waves Ship Positions

North Arm Victor

Last reported at 2018-Jun-17 16:16 UTC. Time now 2018-Jun-18 09:29 UTC.
Position N 49°43' W 123°53'.

Length 18 m.

Type: Tug. MMSI: 316003008.

Date/timePositionNaut miles runAvg speedWind from/ knotsBaromVisibWave heightAir tempDewpointWater temp
2018-Jun-17 16:16N 49°43' W 123°53'4 3.9
2018-Jun-17 15:08N 49°47' W 123°57'1 4.3
2018-Jun-17 15:00N 49°47' W 123°58'2 0.6
2018-Jun-17 11:55N 49°48' W 124°00'6 6.1
2018-Jun-17 10:57N 49°46' W 124°09'3 7.6
2018-Jun-17 10:30N 49°45' W 124°14'4 6.9
2018-Jun-17 10:00N 49°44' W 124°19'4 8.2
2018-Jun-17 09:30N 49°45' W 124°25'4 8.1
2018-Jun-17 09:00N 49°47' W 124°30'4 8.4
2018-Jun-17 08:30N 49°50' W 124°35'4 8.5
2018-Jun-17 07:59N 49°54' W 124°39'4 8.9
2018-Jun-17 07:30N 49°57' W 124°44'4 8.6
2018-Jun-17 07:01N 49°59' W 124°50'4 7.7
2018-Jun-17 06:30N 50°03' W 124°51'2 4.6
2018-Jun-17 06:00N 50°04' W 124°47'2 4.9
2018-Jun-17 05:31N 50°02' W 124°45'3 5.2
2018-Jun-17 05:00N 50°04' W 124°42'1 2.2
2018-Jun-17 04:31N 50°04' W 124°40'0 0.0
2018-Jun-17 04:00N 50°04' W 124°40'0 0.7
2018-Jun-17 03:30N 50°04' W 124°41'1 2.3
2018-Jun-17 03:00N 50°04' W 124°43'2 4.5
2018-Jun-17 02:30N 50°02' W 124°44'3 5.7
2018-Jun-17 02:01N 50°04' W 124°48'2 4.4
2018-Jun-17 01:30N 50°06' W 124°48'1 2.2
2018-Jun-17 01:01N 50°07' W 124°47'1 2.1
2018-Jun-17 00:30N 50°06' W 124°48'1 2.0
2018-Jun-17 00:00N 50°05' W 124°49'1 1.2
2018-Jun-16 23:31N 50°06' W 124°49'1 1.3
2018-Jun-16 23:00N 50°05' W 124°49'1 1.6
2018-Jun-16 22:30N 50°05' W 124°50'2 3.4
2018-Jun-16 22:00N 50°06' W 124°48'2 3.3
2018-Jun-16 21:30N 50°08' W 124°47'1 2.4
2018-Jun-16 21:00N 50°08' W 124°45'1 2.3
2018-Jun-16 20:30N 50°07' W 124°47'1 2.9
2018-Jun-16 20:01N 50°06' W 124°48'1 2.1
2018-Jun-16 19:31N 50°05' W 124°48'1 2.8
2018-Jun-16 19:00N 50°05' W 124°50'1 2.8
2018-Jun-16 18:30N 50°07' W 124°51'1 1.9
2018-Jun-16 18:00N 50°07' W 124°50'0 0.0
2018-Jun-16 17:31N 50°07' W 124°50'0 0.0
2018-Jun-16 17:01N 50°07' W 124°50'0 0.0
2018-Jun-16 16:31N 50°07' W 124°50'0 0.0
2018-Jun-16 16:00N 50°07' W 124°50'0 0.0
2018-Jun-16 15:30N 50°07' W 124°50'0 0.0
2018-Jun-16 15:00N 50°07' W 124°50'0 0.0
2018-Jun-16 14:31N 50°07' W 124°50'0 0.0
2018-Jun-16 14:00N 50°07' W 124°50'0 0.5
2018-Jun-16 13:31N 50°07' W 124°51'1 2.1
2018-Jun-16 13:00N 50°06' W 124°52'1 2.5
2018-Jun-16 12:30N 50°05' W 124°52'2 4.7
2018-Jun-16 11:59N 50°03' W 124°53'3 6.6
2018-Jun-16 11:30N 50°01' W 124°56'4 7.0
2018-Jun-16 11:00N 49°59' W 125°02'4 7.8
2018-Jun-16 10:30N 49°58' W 125°07'4 7.6
2018-Jun-16 10:00N 50°01' W 125°12'4 8.6
2018-Jun-16 09:31N 50°04' W 125°15'3 6.7
2018-Jun-16 09:01N 50°07' W 125°19'2 4.5
2018-Jun-16 08:30N 50°07' W 125°22'0 0.9
2018-Jun-16 08:01N 50°07' W 125°23'0 0.0
2018-Jun-16 07:31N 50°07' W 125°23'0 0.0
2018-Jun-16 07:00N 50°07' W 125°23'0 0.0
2018-Jun-16 06:29N 50°07' W 125°23'0 0.0
2018-Jun-16 06:00N 50°07' W 125°23'0 0.0
2018-Jun-16 05:30N 50°07' W 125°23'0 0.0
2018-Jun-16 05:00N 50°07' W 125°23'0 0.0
2018-Jun-16 04:30N 50°07' W 125°23'0 0.0
2018-Jun-16 04:00N 50°07' W 125°23'0 0.0
2018-Jun-16 03:30N 50°07' W 125°23'0 0.0
2018-Jun-16 03:00N 50°07' W 125°23'1 1.0
2018-Jun-16 02:30N 50°07' W 125°22'1 3.1
2018-Jun-16 02:00N 50°09' W 125°21'4 7.1
2018-Jun-16 01:30N 50°12' W 125°22'0 0.6
2018-Jun-16 01:01N 50°12' W 125°22'0 0.5
2018-Jun-16 00:31N 50°12' W 125°22'1 2.2
2018-Jun-16 00:00N 50°13' W 125°22'3 5.4
2018-Jun-15 23:30N 50°15' W 125°23'0 0.9
2018-Jun-15 23:00N 50°15' W 125°23'1 2.0
2018-Jun-15 22:30N 50°14' W 125°23'1 2.1
2018-Jun-15 22:00N 50°13' W 125°23'0 0.5
2018-Jun-15 21:30N 50°13' W 125°22'3 6.0
2018-Jun-15 20:59N 50°16' W 125°24'4 7.6
2018-Jun-15 20:29N 50°20' W 125°26'39 6.2
2018-Jun-15 14:10N 50°30' W 126°25'2 6.9
2018-Jun-15 13:53N 50°30' W 126°28'6 6.9
2018-Jun-15 13:00N 50°31' W 126°37'7 7.0
2018-Jun-15 12:00N 50°34' W 126°47'7 7.1
2018-Jun-15 11:00N 50°41' W 126°47'7 7.4
2018-Jun-15 10:07N 50°46' W 126°41'3 8.3
2018-Jun-15 09:46N 50°47' W 126°37'3 8.2
2018-Jun-15 09:23N 50°47' W 126°32'2 5.9
2018-Jun-15 09:00N 50°46' W 126°29'0 0.1
2018-Jun-15 02:47N 50°46' W 126°28'1 2.0
2018-Jun-15 02:30N 50°46' W 126°29'0 0.9
2018-Jun-15 02:00N 50°47' W 126°29'0 0.8
2018-Jun-15 01:30N 50°47' W 126°30'2 3.6
2018-Jun-15 01:00N 50°47' W 126°33'3 5.5
2018-Jun-15 00:29N 50°47' W 126°37'4 6.7
2018-Jun-14 23:50N 50°46' W 126°44'3 6.9
2018-Jun-14 23:20N 50°45' W 126°49'2 5.0
2018-Jun-14 22:54N 50°45' W 126°52'4 7.5
2018-Jun-14 22:24N 50°46' W 126°58'5 8.5
2018-Jun-14 21:52N 50°48' W 127°04'3 8.1
2018-Jun-14 21:29N 50°49' W 127°09'4 7.9
2018-Jun-14 21:00N 50°51' W 127°14'4 8.2
2018-Jun-14 20:30N 50°53' W 127°20'5 9.6
2018-Jun-14 20:00N 50°56' W 127°26'4 8.7
2018-Jun-14 19:30N 50°58' W 127°32'4 7.9
2018-Jun-14 19:00N 51°01' W 127°36'4 7.8
2018-Jun-14 18:30N 51°04' W 127°41'4 7.0
2018-Jun-14 17:59N 51°06' W 127°45'4 7.5
2018-Jun-14 17:30N 51°08' W 127°50'4 7.5
2018-Jun-14 17:00N 51°12' W 127°51'4 7.4
2018-Jun-14 16:25N 51°16' W 127°53'4 7.7
2018-Jun-14 15:56N 51°20' W 127°53'3 7.6
2018-Jun-14 15:30N 51°23' W 127°53'4 7.7
2018-Jun-14 15:00N 51°27' W 127°51'4 7.9
2018-Jun-14 14:30N 51°31' W 127°52'4 7.8
2018-Jun-14 14:00N 51°35' W 127°53'4 7.8
2018-Jun-14 13:31N 51°38' W 127°54'4 7.2
2018-Jun-14 13:00N 51°42' W 127°55'4 7.4
2018-Jun-14 12:31N 51°46' W 127°56'4 7.5
2018-Jun-14 12:01N 51°49' W 127°56'4 7.5
2018-Jun-14 11:31N 51°53' W 127°55'4 7.7
2018-Jun-14 11:01N 51°56' W 127°51'510.1
2018-Jun-14 10:30N 51°57' W 127°43'2 3.3
2018-Jun-14 10:01N 51°57' W 127°40'0 0.0
2018-Jun-14 09:30N 51°57' W 127°40'0 0.0
2018-Jun-14 09:00N 51°57' W 127°40'0 0.1
2018-Jun-14 08:30N 51°58' W 127°40'0 0.3
2018-Jun-14 08:00N 51°58' W 127°40'0 0.0
2018-Jun-14 07:30N 51°58' W 127°40'0 0.0
2018-Jun-14 06:56N 51°58' W 127°40'0 0.0
2018-Jun-14 06:30N 51°58' W 127°40'0 0.0
2018-Jun-14 06:00N 51°58' W 127°40'0 0.0
2018-Jun-14 05:29N 51°58' W 127°40'0 0.7
2018-Jun-14 05:01N 51°58' W 127°41'3 6.5
2018-Jun-14 04:31N 51°57' W 127°46'5 9.6
2018-Jun-14 04:00N 51°55' W 127°53'3 6.0
2018-Jun-14 03:30N 51°57' W 127°56'4 7.2
2018-Jun-14 03:00N 52°01' W 127°56'4 7.5
2018-Jun-14 02:30N 52°04' W 127°59'4 8.1
2018-Jun-14 02:00N 52°05' W 128°05'3 6.8
2018-Jun-14 01:30N 52°08' W 128°08'3 4.9
2018-Jun-14 01:00N 52°10' W 128°06'1 2.0
2018-Jun-14 00:20N 52°09' W 128°05'0 0.0
2018-Jun-13 23:33N 52°09' W 128°05'0 0.0
2018-Jun-13 23:12N 52°09' W 128°05'0 0.2
2018-Jun-13 22:48N 52°09' W 128°05'0 0.4
2018-Jun-13 22:27N 52°09' W 128°05'2 3.5
2018-Jun-13 22:00N 52°10' W 128°07'3 5.2
2018-Jun-13 21:29N 52°13' W 128°08'4 7.7
2018-Jun-13 21:00N 52°14' W 128°13'3 7.0
2018-Jun-13 20:30N 52°18' W 128°13'4 7.6
2018-Jun-13 20:01N 52°21' W 128°11'4 7.5
2018-Jun-13 19:30N 52°25' W 128°08'4 7.4
2018-Jun-13 19:00N 52°28' W 128°06'7 0.6
2018-Jun-13 05:54N 52°36' W 128°06'5 7.2
2018-Jun-13 05:15N 52°31' W 128°05'2 7.7
2018-Jun-13 05:00N 52°29' W 128°05'4 7.8
2018-Jun-13 04:28N 52°25' W 128°05'4 8.0
2018-Jun-13 04:01N 52°21' W 128°03'4 7.0
2018-Jun-13 03:30N 52°19' W 127°59'4 7.1
2018-Jun-13 03:00N 52°16' W 127°55'4 8.2
2018-Jun-13 02:30N 52°12' W 127°54'3 5.8
2018-Jun-13 02:01N 52°13' W 127°49'4 8.4
2018-Jun-13 01:30N 52°16' W 127°44'8 0.3
2018-Jun-12 00:42N 52°19' W 127°32'2 6.9
2018-Jun-12 00:27N 52°18' W 127°34'3 6.9
2018-Jun-12 00:00N 52°17' W 127°39'4 7.7
2018-Jun-11 23:30N 52°16' W 127°45'4 6.9
2018-Jun-11 23:00N 52°13' W 127°49'4 7.2
2018-Jun-11 22:30N 52°10' W 127°52'4 7.1
2018-Jun-11 22:00N 52°07' W 127°54'3 6.7
2018-Jun-11 21:30N 52°04' W 127°57'3 6.4
2018-Jun-11 20:59N 52°04' W 128°03'3 6.9
2018-Jun-11 20:30N 52°06' W 128°08'3 7.2
2018-Jun-11 20:00N 52°10' W 128°08'0 0.3
2018-Jun-11 19:30N 52°10' W 128°08'0 0.0
2018-Jun-11 19:00N 52°10' W 128°08'0 0.0
2018-Jun-11 18:30N 52°10' W 128°08'0 0.0
2018-Jun-11 18:01N 52°10' W 128°08'0 0.0
2018-Jun-11 17:30N 52°10' W 128°08'0 0.0
2018-Jun-11 17:00N 52°10' W 128°08'0 0.0
2018-Jun-11 16:30N 52°10' W 128°08'0 0.0
2018-Jun-11 16:01N 52°10' W 128°08'0 0.2
2018-Jun-11 15:30N 52°10' W 128°08'2 3.4
2018-Jun-11 14:57N 52°11' W 128°06'2 5.0
2018-Jun-11 14:30N 52°13' W 128°09'4 7.1
2018-Jun-11 14:00N 52°14' W 128°14'4 7.4
2018-Jun-11 13:30N 52°15' W 128°20'4 7.3
2018-Jun-11 13:00N 52°16' W 128°26'3 6.9
2018-Jun-11 12:30N 52°18' W 128°30'4 7.4
2018-Jun-11 12:00N 52°22' W 128°32'4 8.2
2018-Jun-11 11:30N 52°26' W 128°29'4 8.0
2018-Jun-11 11:00N 52°30' W 128°27'4 7.8
2018-Jun-11 10:27N 52°34' W 128°28'5 7.6
2018-Jun-11 09:51N 52°38' W 128°29'9 0.6
2018-Jun-10 18:52N 52°36' W 128°15'1 0.4
2018-Jun-10 15:19N 52°36' W 128°18'1 2.1
2018-Jun-10 14:48N 52°35' W 128°17'1 2.3
2018-Jun-10 14:26N 52°34' W 128°17'2 2.3
2018-Jun-10 13:29N 52°32' W 128°16'1 2.4
2018-Jun-10 13:00N 52°31' W 128°16'2 4.0
2018-Jun-10 12:30N 52°29' W 128°17'4 5.1
2018-Jun-10 11:47N 52°28' W 128°23'1 4.9
2018-Jun-10 11:31N 52°27' W 128°25'3 6.1
2018-Jun-10 11:01N 52°30' W 128°27'3 6.5
2018-Jun-10 10:30N 52°33' W 128°28'3 6.5
2018-Jun-10 09:59N 52°37' W 128°30'1 2.9
2018-Jun-10 09:30N 52°36' W 128°31'0 0.2
2018-Jun-10 08:58N 52°36' W 128°31'0 0.0
2018-Jun-10 08:24N 52°36' W 128°31'0 0.0
2018-Jun-10 08:01N 52°36' W 128°31'0 0.0
2018-Jun-10 07:04N 52°36' W 128°31'0 0.0
2018-Jun-10 06:59N 52°36' W 128°31'0 0.0
2018-Jun-10 06:30N 52°36' W 128°31'0 0.0
2018-Jun-10 06:00N 52°36' W 128°31'0 0.0
2018-Jun-10 05:26N 52°36' W 128°31'1 2.0
2018-Jun-10 05:01N 52°35' W 128°31'3 5.0
2018-Jun-10 04:29N 52°32' W 128°29'3 6.7
2018-Jun-10 04:00N 52°29' W 128°28'4 8.0
2018-Jun-10 03:30N 52°25' W 128°29'5 7.6
2018-Jun-10 02:49N 52°20' W 128°31'2 7.7
2018-Jun-10 02:30N 52°18' W 128°30'4 7.7
2018-Jun-10 02:00N 52°16' W 128°25'4 7.9
2018-Jun-10 01:28N 52°15' W 128°18'3 7.2
2018-Jun-10 01:00N 52°14' W 128°13'4 7.1
2018-Jun-10 00:30N 52°16' W 128°09'5 7.4
2018-Jun-09 23:52N 52°19' W 128°02'3 7.5
2018-Jun-09 23:30N 52°18' W 127°58'5 7.7
2018-Jun-09 22:54N 52°14' W 127°54'3 7.8
2018-Jun-09 22:30N 52°11' W 127°53'4 6.6
2018-Jun-09 21:54N 52°14' W 127°48'3 7.4
2018-Jun-09 21:30N 52°16' W 127°44'10 0.4
2018-Jun-08 21:59N 52°12' W 127°28'4 7.2
2018-Jun-08 21:27N 52°10' W 127°33'3 7.1
2018-Jun-08 20:59N 52°08' W 127°37'3 6.8
2018-Jun-08 20:31N 52°05' W 127°39'3 6.3
2018-Jun-08 20:00N 52°02' W 127°40'3 6.5
2018-Jun-08 19:30N 51°58' W 127°41'3 5.4
2018-Jun-08 19:00N 51°57' W 127°45'3 5.6
2018-Jun-08 18:30N 51°56' W 127°50'2 4.6
2018-Jun-08 18:00N 51°55' W 127°53'4 7.0
2018-Jun-08 17:30N 51°52' W 127°55'4 7.4
2018-Jun-08 17:00N 51°48' W 127°56'4 7.5
2018-Jun-08 16:30N 51°44' W 127°55'4 7.5
2018-Jun-08 16:00N 51°41' W 127°55'4 8.0
2018-Jun-08 15:30N 51°37' W 127°53'4 8.1
2018-Jun-08 15:00N 51°33' W 127°53'4 8.3
2018-Jun-08 14:30N 51°28' W 127°52'4 7.3
2018-Jun-08 13:59N 51°25' W 127°52'3 7.2
2018-Jun-08 13:30N 51°21' W 127°52'4 7.5
2018-Jun-08 12:59N 51°17' W 127°53'3 7.2
2018-Jun-08 12:30N 51°14' W 127°52'4 7.7
2018-Jun-08 11:57N 51°10' W 127°50'4 8.0
2018-Jun-08 11:30N 51°07' W 127°47'4 8.2
2018-Jun-08 11:00N 51°04' W 127°42'4 8.1
2018-Jun-08 10:30N 51°02' W 127°37'4 8.4
2018-Jun-08 10:00N 50°59' W 127°32'4 8.9
2018-Jun-08 09:30N 50°56' W 127°27'4 9.0
2018-Jun-08 09:00N 50°53' W 127°22'4 8.3
2018-Jun-08 08:30N 50°50' W 127°17'4 8.2
2018-Jun-08 08:00N 50°47' W 127°12'4 7.9
2018-Jun-08 07:30N 50°45' W 127°07'16 7.3
2018-Jun-08 05:22N 50°37' W 126°46'4 6.3
2018-Jun-08 04:40N 50°34' W 126°41'2 7.0
2018-Jun-08 04:23N 50°32' W 126°40'3 7.6
2018-Jun-08 03:56N 50°31' W 126°35'4 8.0
2018-Jun-08 03:28N 50°30' W 126°29'41 8.2
2018-Jun-07 22:26N 50°20' W 125°26'4 9.0
2018-Jun-07 21:59N 50°16' W 125°24'4 8.7
2018-Jun-07 21:30N 50°12' W 125°22'4 8.1
2018-Jun-07 21:00N 50°08' W 125°21'1 3.0
2018-Jun-07 20:31N 50°07' W 125°23'0 0.2
2018-Jun-07 20:00N 50°07' W 125°23'0 0.0
2018-Jun-07 19:31N 50°07' W 125°23'0 0.0
2018-Jun-07 18:59N 50°07' W 125°23'0 0.0
2018-Jun-07 18:31N 50°07' W 125°23'0 0.0
2018-Jun-07 18:01N 50°07' W 125°23'0 0.0
2018-Jun-07 17:31N 50°07' W 125°23'0 0.0
2018-Jun-07 17:00N 50°07' W 125°23'0 0.0
2018-Jun-07 16:31N 50°07' W 125°23'  
Track history (hours):
 
Tides and Currents Weather Stations Pressure Air Temp Water Temp Dewpoint Dewpoint Depression Visibility Wind Speed Wind Dir Waves Ship Positions

North Arm Victor

Last reported at 2018-Jun-17 16:16 UTC. Time now 2018-Jun-18 09:29 UTC.
Position N 49°43' W 123°53'.

Length 18 m.

Type: Tug. MMSI: 316003008.

Date/timePositionNaut miles runAvg speedWind from/ knotsBaromVisibWave heightAir tempDewpointWater temp
2018-Jun-17 16:16N 49°43' W 123°53'4 3.9
2018-Jun-17 15:08N 49°47' W 123°57'1 4.3
2018-Jun-17 15:00N 49°47' W 123°58'2 0.6
2018-Jun-17 11:55N 49°48' W 124°00'6 6.1
2018-Jun-17 10:57N 49°46' W 124°09'3 7.6
2018-Jun-17 10:30N 49°45' W 124°14'4 6.9
2018-Jun-17 10:00N 49°44' W 124°19'4 8.2
2018-Jun-17 09:30N 49°45' W 124°25'4 8.1
2018-Jun-17 09:00N 49°47' W 124°30'4 8.4
2018-Jun-17 08:30N 49°50' W 124°35'4 8.5
2018-Jun-17 07:59N 49°54' W 124°39'4 8.9
2018-Jun-17 07:30N 49°57' W 124°44'4 8.6
2018-Jun-17 07:01N 49°59' W 124°50'4 7.7
2018-Jun-17 06:30N 50°03' W 124°51'2 4.6
2018-Jun-17 06:00N 50°04' W 124°47'2 4.9
2018-Jun-17 05:31N 50°02' W 124°45'3 5.2
2018-Jun-17 05:00N 50°04' W 124°42'1 2.2
2018-Jun-17 04:31N 50°04' W 124°40'0 0.0
2018-Jun-17 04:00N 50°04' W 124°40'0 0.7
2018-Jun-17 03:30N 50°04' W 124°41'1 2.3
2018-Jun-17 03:00N 50°04' W 124°43'2 4.5
2018-Jun-17 02:30N 50°02' W 124°44'3 5.7
2018-Jun-17 02:01N 50°04' W 124°48'2 4.4
2018-Jun-17 01:30N 50°06' W 124°48'1 2.2
2018-Jun-17 01:01N 50°07' W 124°47'1 2.1
2018-Jun-17 00:30N 50°06' W 124°48'1 2.0
2018-Jun-17 00:00N 50°05' W 124°49'1 1.2
2018-Jun-16 23:31N 50°06' W 124°49'1 1.3
2018-Jun-16 23:00N 50°05' W 124°49'1 1.6
2018-Jun-16 22:30N 50°05' W 124°50'2 3.4
2018-Jun-16 22:00N 50°06' W 124°48'2 3.3
2018-Jun-16 21:30N 50°08' W 124°47'1 2.4
2018-Jun-16 21:00N 50°08' W 124°45'1 2.3
2018-Jun-16 20:30N 50°07' W 124°47'1 2.9
2018-Jun-16 20:01N 50°06' W 124°48'1 2.1
2018-Jun-16 19:31N 50°05' W 124°48'1 2.8
2018-Jun-16 19:00N 50°05' W 124°50'1 2.8
2018-Jun-16 18:30N 50°07' W 124°51'1 1.9
2018-Jun-16 18:00N 50°07' W 124°50'0 0.0
2018-Jun-16 17:31N 50°07' W 124°50'0 0.0
2018-Jun-16 17:01N 50°07' W 124°50'0 0.0
2018-Jun-16 16:31N 50°07' W 124°50'0 0.0
2018-Jun-16 16:00N 50°07' W 124°50'0 0.0
2018-Jun-16 15:30N 50°07' W 124°50'0 0.0
2018-Jun-16 15:00N 50°07' W 124°50'0 0.0
2018-Jun-16 14:31N 50°07' W 124°50'0 0.0
2018-Jun-16 14:00N 50°07' W 124°50'0 0.5
2018-Jun-16 13:31N 50°07' W 124°51'1 2.1
2018-Jun-16 13:00N 50°06' W 124°52'1 2.5
2018-Jun-16 12:30N 50°05' W 124°52'2 4.7
2018-Jun-16 11:59N 50°03' W 124°53'3 6.6
2018-Jun-16 11:30N 50°01' W 124°56'4 7.0
2018-Jun-16 11:00N 49°59' W 125°02'4 7.8
2018-Jun-16 10:30N 49°58' W 125°07'4 7.6
2018-Jun-16 10:00N 50°01' W 125°12'4 8.6
2018-Jun-16 09:31N 50°04' W 125°15'3 6.7
2018-Jun-16 09:01N 50°07' W 125°19'2 4.5
2018-Jun-16 08:30N 50°07' W 125°22'0 0.9
2018-Jun-16 08:01N 50°07' W 125°23'0 0.0
2018-Jun-16 07:31N 50°07' W 125°23'0 0.0
2018-Jun-16 07:00N 50°07' W 125°23'0 0.0
2018-Jun-16 06:29N 50°07' W 125°23'0 0.0
2018-Jun-16 06:00N 50°07' W 125°23'0 0.0
2018-Jun-16 05:30N 50°07' W 125°23'0 0.0
2018-Jun-16 05:00N 50°07' W 125°23'0 0.0
2018-Jun-16 04:30N 50°07' W 125°23'0 0.0
2018-Jun-16 04:00N 50°07' W 125°23'0 0.0
2018-Jun-16 03:30N 50°07' W 125°23'0 0.0
2018-Jun-16 03:00N 50°07' W 125°23'1 1.0
2018-Jun-16 02:30N 50°07' W 125°22'1 3.1
2018-Jun-16 02:00N 50°09' W 125°21'4 7.1
2018-Jun-16 01:30N 50°12' W 125°22'0 0.6
2018-Jun-16 01:01N 50°12' W 125°22'0 0.5
2018-Jun-16 00:31N 50°12' W 125°22'1 2.2
2018-Jun-16 00:00N 50°13' W 125°22'3 5.4
2018-Jun-15 23:30N 50°15' W 125°23'0 0.9
2018-Jun-15 23:00N 50°15' W 125°23'1 2.0
2018-Jun-15 22:30N 50°14' W 125°23'1 2.1
2018-Jun-15 22:00N 50°13' W 125°23'0 0.5
2018-Jun-15 21:30N 50°13' W 125°22'3 6.0
2018-Jun-15 20:59N 50°16' W 125°24'4 7.6
2018-Jun-15 20:29N 50°20' W 125°26'39 6.2
2018-Jun-15 14:10N 50°30' W 126°25'2 6.9
2018-Jun-15 13:53N 50°30' W 126°28'6 6.9
2018-Jun-15 13:00N 50°31' W 126°37'7 7.0
2018-Jun-15 12:00N 50°34' W 126°47'7 7.1
2018-Jun-15 11:00N 50°41' W 126°47'7 7.4
2018-Jun-15 10:07N 50°46' W 126°41'3 8.3
2018-Jun-15 09:46N 50°47' W 126°37'3 8.2
2018-Jun-15 09:23N 50°47' W 126°32'2 5.9
2018-Jun-15 09:00N 50°46' W 126°29'0 0.1
2018-Jun-15 02:47N 50°46' W 126°28'1 2.0
2018-Jun-15 02:30N 50°46' W 126°29'0 0.9
2018-Jun-15 02:00N 50°47' W 126°29'0 0.8
2018-Jun-15 01:30N 50°47' W 126°30'2 3.6
2018-Jun-15 01:00N 50°47' W 126°33'3 5.5
2018-Jun-15 00:29N 50°47' W 126°37'4 6.7
2018-Jun-14 23:50N 50°46' W 126°44'3 6.9
2018-Jun-14 23:20N 50°45' W 126°49'2 5.0
2018-Jun-14 22:54N 50°45' W 126°52'4 7.5
2018-Jun-14 22:24N 50°46' W 126°58'5 8.5
2018-Jun-14 21:52N 50°48' W 127°04'3 8.1
2018-Jun-14 21:29N 50°49' W 127°09'4 7.9
2018-Jun-14 21:00N 50°51' W 127°14'4 8.2
2018-Jun-14 20:30N 50°53' W 127°20'5 9.6
2018-Jun-14 20:00N 50°56' W 127°26'4 8.7
2018-Jun-14 19:30N 50°58' W 127°32'4 7.9
2018-Jun-14 19:00N 51°01' W 127°36'4 7.8
2018-Jun-14 18:30N 51°04' W 127°41'4 7.0
2018-Jun-14 17:59N 51°06' W 127°45'4 7.5
2018-Jun-14 17:30N 51°08' W 127°50'4 7.5
2018-Jun-14 17:00N 51°12' W 127°51'4 7.4
2018-Jun-14 16:25N 51°16' W 127°53'4 7.7
2018-Jun-14 15:56N 51°20' W 127°53'3 7.6
2018-Jun-14 15:30N 51°23' W 127°53'4 7.7
2018-Jun-14 15:00N 51°27' W 127°51'4 7.9
2018-Jun-14 14:30N 51°31' W 127°52'4 7.8
2018-Jun-14 14:00N 51°35' W 127°53'4 7.8
2018-Jun-14 13:31N 51°38' W 127°54'4 7.2
2018-Jun-14 13:00N 51°42' W 127°55'4 7.4
2018-Jun-14 12:31N 51°46' W 127°56'4 7.5
2018-Jun-14 12:01N 51°49' W 127°56'4 7.5
2018-Jun-14 11:31N 51°53' W 127°55'4 7.7
2018-Jun-14 11:01N 51°56' W 127°51'510.1
2018-Jun-14 10:30N 51°57' W 127°43'2 3.3
2018-Jun-14 10:01N 51°57' W 127°40'0 0.0
2018-Jun-14 09:30N 51°57' W 127°40'0 0.0
2018-Jun-14 09:00N 51°57' W 127°40'0 0.1
2018-Jun-14 08:30N 51°58' W 127°40'0 0.3
2018-Jun-14 08:00N 51°58' W 127°40'0 0.0
2018-Jun-14 07:30N 51°58' W 127°40'0 0.0
2018-Jun-14 06:56N 51°58' W 127°40'0 0.0
2018-Jun-14 06:30N 51°58' W 127°40'0 0.0
2018-Jun-14 06:00N 51°58' W 127°40'0 0.0
2018-Jun-14 05:29N 51°58' W 127°40'0 0.7
2018-Jun-14 05:01N 51°58' W 127°41'3 6.5
2018-Jun-14 04:31N 51°57' W 127°46'5 9.6
2018-Jun-14 04:00N 51°55' W 127°53'3 6.0
2018-Jun-14 03:30N 51°57' W 127°56'4 7.2
2018-Jun-14 03:00N 52°01' W 127°56'4 7.5
2018-Jun-14 02:30N 52°04' W 127°59'4 8.1
2018-Jun-14 02:00N 52°05' W 128°05'3 6.8
2018-Jun-14 01:30N 52°08' W 128°08'3 4.9
2018-Jun-14 01:00N 52°10' W 128°06'1 2.0
2018-Jun-14 00:20N 52°09' W 128°05'0 0.0
2018-Jun-13 23:33N 52°09' W 128°05'0 0.0
2018-Jun-13 23:12N 52°09' W 128°05'0 0.2
2018-Jun-13 22:48N 52°09' W 128°05'0 0.4
2018-Jun-13 22:27N 52°09' W 128°05'2 3.5
2018-Jun-13 22:00N 52°10' W 128°07'3 5.2
2018-Jun-13 21:29N 52°13' W 128°08'4 7.7
2018-Jun-13 21:00N 52°14' W 128°13'3 7.0
2018-Jun-13 20:30N 52°18' W 128°13'4 7.6
2018-Jun-13 20:01N 52°21' W 128°11'4 7.5
2018-Jun-13 19:30N 52°25' W 128°08'4 7.4
2018-Jun-13 19:00N 52°28' W 128°06'7 0.6
2018-Jun-13 05:54N 52°36' W 128°06'5 7.2
2018-Jun-13 05:15N 52°31' W 128°05'2 7.7
2018-Jun-13 05:00N 52°29' W 128°05'4 7.8
2018-Jun-13 04:28N 52°25' W 128°05'4 8.0
2018-Jun-13 04:01N 52°21' W 128°03'4 7.0
2018-Jun-13 03:30N 52°19' W 127°59'4 7.1
2018-Jun-13 03:00N 52°16' W 127°55'4 8.2
2018-Jun-13 02:30N 52°12' W 127°54'3 5.8
2018-Jun-13 02:01N 52°13' W 127°49'4 8.4
2018-Jun-13 01:30N 52°16' W 127°44'8 0.3
2018-Jun-12 00:42N 52°19' W 127°32'2 6.9
2018-Jun-12 00:27N 52°18' W 127°34'3 6.9
2018-Jun-12 00:00N 52°17' W 127°39'4 7.7
2018-Jun-11 23:30N 52°16' W 127°45'4 6.9
2018-Jun-11 23:00N 52°13' W 127°49'4 7.2
2018-Jun-11 22:30N 52°10' W 127°52'4 7.1
2018-Jun-11 22:00N 52°07' W 127°54'3 6.7
2018-Jun-11 21:30N 52°04' W 127°57'3 6.4
2018-Jun-11 20:59N 52°04' W 128°03'3 6.9
2018-Jun-11 20:30N 52°06' W 128°08'3 7.2
2018-Jun-11 20:00N 52°10' W 128°08'0 0.3
2018-Jun-11 19:30N 52°10' W 128°08'0 0.0
2018-Jun-11 19:00N 52°10' W 128°08'0 0.0
2018-Jun-11 18:30N 52°10' W 128°08'0 0.0
2018-Jun-11 18:01N 52°10' W 128°08'0 0.0
2018-Jun-11 17:30N 52°10' W 128°08'0 0.0
2018-Jun-11 17:00N 52°10' W 128°08'0 0.0
2018-Jun-11 16:30N 52°10' W 128°08'0 0.0
2018-Jun-11 16:01N 52°10' W 128°08'0 0.2
2018-Jun-11 15:30N 52°10' W 128°08'2 3.4
2018-Jun-11 14:57N 52°11' W 128°06'2 5.0
2018-Jun-11 14:30N 52°13' W 128°09'4 7.1
2018-Jun-11 14:00N 52°14' W 128°14'4 7.4
2018-Jun-11 13:30N 52°15' W 128°20'4 7.3
2018-Jun-11 13:00N 52°16' W 128°26'3 6.9
2018-Jun-11 12:30N 52°18' W 128°30'4 7.4
2018-Jun-11 12:00N 52°22' W 128°32'4 8.2
2018-Jun-11 11:30N 52°26' W 128°29'4 8.0
2018-Jun-11 11:00N 52°30' W 128°27'4 7.8
2018-Jun-11 10:27N 52°34' W 128°28'5 7.6
2018-Jun-11 09:51N 52°38' W 128°29'9 0.6
2018-Jun-10 18:52N 52°36' W 128°15'1 0.4
2018-Jun-10 15:19N 52°36' W 128°18'1 2.1
2018-Jun-10 14:48N 52°35' W 128°17'1 2.3
2018-Jun-10 14:26N 52°34' W 128°17'2 2.3
2018-Jun-10 13:29N 52°32' W 128°16'1 2.4
2018-Jun-10 13:00N 52°31' W 128°16'2 4.0
2018-Jun-10 12:30N 52°29' W 128°17'4 5.1
2018-Jun-10 11:47N 52°28' W 128°23'1 4.9
2018-Jun-10 11:31N 52°27' W 128°25'3 6.1
2018-Jun-10 11:01N 52°30' W 128°27'3 6.5
2018-Jun-10 10:30N 52°33' W 128°28'3 6.5
2018-Jun-10 09:59N 52°37' W 128°30'1 2.9
2018-Jun-10 09:30N 52°36' W 128°31'0 0.2
2018-Jun-10 08:58N 52°36' W 128°31'0 0.0
2018-Jun-10 08:24N 52°36' W 128°31'0 0.0
2018-Jun-10 08:01N 52°36' W 128°31'0 0.0
2018-Jun-10 07:04N 52°36' W 128°31'0 0.0
2018-Jun-10 06:59N 52°36' W 128°31'0 0.0
2018-Jun-10 06:30N 52°36' W 128°31'0 0.0
2018-Jun-10 06:00N 52°36' W 128°31'0 0.0
2018-Jun-10 05:26N 52°36' W 128°31'1 2.0
2018-Jun-10 05:01N 52°35' W 128°31'3 5.0
2018-Jun-10 04:29N 52°32' W 128°29'3 6.7
2018-Jun-10 04:00N 52°29' W 128°28'4 8.0
2018-Jun-10 03:30N 52°25' W 128°29'5 7.6
2018-Jun-10 02:49N 52°20' W 128°31'2 7.7
2018-Jun-10 02:30N 52°18' W 128°30'4 7.7
2018-Jun-10 02:00N 52°16' W 128°25'4 7.9
2018-Jun-10 01:28N 52°15' W 128°18'3 7.2
2018-Jun-10 01:00N 52°14' W 128°13'4 7.1
2018-Jun-10 00:30N 52°16' W 128°09'5 7.4
2018-Jun-09 23:52N 52°19' W 128°02'3 7.5
2018-Jun-09 23:30N 52°18' W 127°58'5 7.7
2018-Jun-09 22:54N 52°14' W 127°54'3 7.8
2018-Jun-09 22:30N 52°11' W 127°53'4 6.6
2018-Jun-09 21:54N 52°14' W 127°48'3 7.4
2018-Jun-09 21:30N 52°16' W 127°44'10 0.4
2018-Jun-08 21:59N 52°12' W 127°28'4 7.2
2018-Jun-08 21:27N 52°10' W 127°33'3 7.1
2018-Jun-08 20:59N 52°08' W 127°37'3 6.8
2018-Jun-08 20:31N 52°05' W 127°39'3 6.3
2018-Jun-08 20:00N 52°02' W 127°40'3 6.5
2018-Jun-08 19:30N 51°58' W 127°41'3 5.4
2018-Jun-08 19:00N 51°57' W 127°45'3 5.6
2018-Jun-08 18:30N 51°56' W 127°50'2 4.6
2018-Jun-08 18:00N 51°55' W 127°53'4 7.0
2018-Jun-08 17:30N 51°52' W 127°55'4 7.4
2018-Jun-08 17:00N 51°48' W 127°56'4 7.5
2018-Jun-08 16:30N 51°44' W 127°55'4 7.5
2018-Jun-08 16:00N 51°41' W 127°55'4 8.0
2018-Jun-08 15:30N 51°37' W 127°53'4 8.1
2018-Jun-08 15:00N 51°33' W 127°53'4 8.3
2018-Jun-08 14:30N 51°28' W 127°52'4 7.3
2018-Jun-08 13:59N 51°25' W 127°52'3 7.2
2018-Jun-08 13:30N 51°21' W 127°52'4 7.5
2018-Jun-08 12:59N 51°17' W 127°53'3 7.2
2018-Jun-08 12:30N 51°14' W 127°52'4 7.7
2018-Jun-08 11:57N 51°10' W 127°50'4 8.0
2018-Jun-08 11:30N 51°07' W 127°47'4 8.2
2018-Jun-08 11:00N 51°04' W 127°42'4 8.1
2018-Jun-08 10:30N 51°02' W 127°37'4 8.4
2018-Jun-08 10:00N 50°59' W 127°32'4 8.9
2018-Jun-08 09:30N 50°56' W 127°27'4 9.0
2018-Jun-08 09:00N 50°53' W 127°22'4 8.3
2018-Jun-08 08:30N 50°50' W 127°17'4 8.2
2018-Jun-08 08:00N 50°47' W 127°12'4 7.9
2018-Jun-08 07:30N 50°45' W 127°07'16 7.3
2018-Jun-08 05:22N 50°37' W 126°46'4 6.3
2018-Jun-08 04:40N 50°34' W 126°41'2 7.0
2018-Jun-08 04:23N 50°32' W 126°40'3 7.6
2018-Jun-08 03:56N 50°31' W 126°35'4 8.0
2018-Jun-08 03:28N 50°30' W 126°29'41 8.2
2018-Jun-07 22:26N 50°20' W 125°26'4 9.0
2018-Jun-07 21:59N 50°16' W 125°24'4 8.7
2018-Jun-07 21:30N 50°12' W 125°22'4 8.1
2018-Jun-07 21:00N 50°08' W 125°21'1 3.0
2018-Jun-07 20:31N 50°07' W 125°23'0 0.2
2018-Jun-07 20:00N 50°07' W 125°23'0 0.0
2018-Jun-07 19:31N 50°07' W 125°23'0 0.0
2018-Jun-07 18:59N 50°07' W 125°23'0 0.0
2018-Jun-07 18:31N 50°07' W 125°23'0 0.0
2018-Jun-07 18:01N 50°07' W 125°23'0 0.0
2018-Jun-07 17:31N 50°07' W 125°23'0 0.0
2018-Jun-07 17:00N 50°07' W 125°23'0 0.0
2018-Jun-07 16:31N 50°07' W 125°23'  

Dump ship's entire track history